Orbital elements of SL-16 DEB
| Launched | 21 October 1985 |
| Flight ended | – |
| Launch site | Tyuratam Missile and Space Center, Kazakhstan (Also known as Baikonur Cosmodrome) |
| Owner | Commonwealth of Independent States (former USSR) |
| NORAD ID | 16390 |
| Date fetched |
Epoch osculation |
Inc. [°] |
Ecc. | RA asc node [hr] |
Arg Peri. [°] |
Mean anom [°] |
Mean motion [rev/day] |
Abs. mag |
| Date fetched |
Epoch osculation |
Inc. [°] |
Ecc. | RA asc node [hr] |
Arg Peri. [°] |
Mean anom [°] |
Mean motion [rev/day] |
Abs. mag |
| 2026 May 01 17:56 | 2026 Apr 30 11:39:25 | 70.9763 | 0.02048 | 2.7311 | 126.1615 | 235.8627 | 13.72735 | – |
| 2026 Apr 30 17:56 | 2026 Apr 30 11:39:25 | 70.9763 | 0.02048 | 2.7311 | 126.1615 | 235.8627 | 13.72735 | – |
| 2026 Apr 29 17:57 | 2026 Apr 24 05:15:22 | 70.9754 | 0.02050 | 3.5502 | 135.1080 | 235.8627 | 13.72735 | – |
| 2026 Apr 28 17:56 | 2026 Apr 24 05:15:22 | 70.9754 | 0.02050 | 3.5502 | 135.1080 | 235.8627 | 13.72735 | – |
| 2026 Apr 27 17:58 | 2026 Apr 24 05:15:22 | 70.9754 | 0.02050 | 3.5502 | 135.1080 | 235.8627 | 13.72735 | – |
| 2026 Apr 26 17:58 | 2026 Apr 24 05:15:22 | 70.9754 | 0.02050 | 3.5502 | 135.1080 | 235.8627 | 13.72735 | – |
| 2026 Apr 25 17:58 | 2026 Apr 24 05:15:22 | 70.9754 | 0.02050 | 3.5502 | 135.1080 | 235.8627 | 13.72735 | – |
| 2026 Apr 24 17:59 | 2026 Apr 24 05:15:22 | 70.9754 | 0.02050 | 3.5502 | 135.1080 | 235.8627 | 13.72735 | – |
| 2026 Apr 23 17:57 | 2026 Apr 19 06:20:03 | 70.9745 | 0.02051 | 4.1979 | 142.1747 | 235.8627 | 13.72735 | – |
| 2026 Apr 22 17:57 | 2026 Apr 19 06:20:03 | 70.9745 | 0.02051 | 4.1979 | 142.1747 | 235.8627 | 13.72735 | – |
| 2026 Apr 21 17:57 | 2026 Apr 19 06:20:03 | 70.9745 | 0.02051 | 4.1979 | 142.1747 | 235.8627 | 13.72735 | – |
| 2026 Apr 20 17:57 | 2026 Apr 19 06:20:03 | 70.9745 | 0.02051 | 4.1979 | 142.1747 | 235.8627 | 13.72735 | – |
| 2026 Apr 19 17:58 | 2026 Apr 19 06:20:03 | 70.9745 | 0.02051 | 4.1979 | 142.1747 | 235.8627 | 13.72735 | – |
| 2026 Apr 18 17:56 | 2026 Apr 13 05:10:45 | 70.9734 | 0.02054 | 4.9885 | 150.7917 | 235.8627 | 13.72735 | – |
| 2026 Apr 16 17:57 | 2026 Apr 13 05:10:45 | 70.9734 | 0.02054 | 4.9885 | 150.7917 | 235.8627 | 13.72735 | – |
| 2026 Apr 14 17:57 | 2026 Apr 13 05:10:45 | 70.9734 | 0.02054 | 4.9885 | 150.7917 | 235.8627 | 13.72735 | – |
| 2026 Apr 13 17:57 | 2026 Apr 13 05:10:45 | 70.9734 | 0.02054 | 4.9885 | 150.7917 | 235.8627 | 13.72735 | – |
| 2026 Apr 12 17:57 | 2026 Apr 08 08:00:20 | 70.9726 | 0.02056 | 5.6268 | 157.7335 | 235.8627 | 13.72735 | – |
| 2026 Apr 11 17:57 | 2026 Apr 08 08:00:20 | 70.9726 | 0.02056 | 5.6268 | 157.7335 | 235.8627 | 13.72735 | – |
| 2026 Apr 10 17:58 | 2026 Apr 08 08:00:20 | 70.9726 | 0.02056 | 5.6268 | 157.7335 | 235.8627 | 13.72735 | – |
| 2026 Apr 09 18:01 | 2026 Apr 08 08:00:20 | 70.9726 | 0.02056 | 5.6268 | 157.7335 | 235.8627 | 13.72735 | – |
| 2026 Apr 08 17:57 | 2026 Apr 08 08:00:20 | 70.9726 | 0.02056 | 5.6268 | 157.7335 | 235.8627 | 13.72735 | – |
| 2026 Apr 07 17:57 | 2026 Apr 02 06:51:01 | 70.9721 | 0.02060 | 6.4175 | 166.3121 | 235.8627 | 13.72735 | – |
| 2026 Apr 06 17:57 | 2026 Apr 02 06:51:01 | 70.9721 | 0.02060 | 6.4175 | 166.3121 | 235.8627 | 13.72735 | – |
| 2026 Apr 05 17:56 | 2026 Apr 02 06:51:01 | 70.9721 | 0.02060 | 6.4175 | 166.3121 | 235.8627 | 13.72735 | – |
| 2026 Apr 04 17:57 | 2026 Apr 02 06:51:01 | 70.9721 | 0.02060 | 6.4175 | 166.3121 | 235.8627 | 13.72735 | – |